sensor_id;sensor_type;location;lat;lon;timestamp;temperature;humidity
59855;DHT22;45732;52.850;6.896;2023-07-29T00:00:43;19.50;99.90
59855;DHT22;45732;52.850;6.896;2023-07-29T00:03:09;19.50;99.90
59855;DHT22;45732;52.850;6.896;2023-07-29T00:05:36;19.50;99.90
59855;DHT22;45732;52.850;6.896;2023-07-29T00:08:02;19.40;99.90
59855;DHT22;45732;52.850;6.896;2023-07-29T00:10:28;19.50;99.90
59855;DHT22;45732;52.850;6.896;2023-07-29T00:12:54;19.50;99.90
59855;DHT22;45732;52.850;6.896;2023-07-29T00:15:20;19.50;99.90
59855;DHT22;45732;52.850;6.896;2023-07-29T00:17:46;19.50;99.90
59855;DHT22;45732;52.850;6.896;2023-07-29T00:20:11;19.50;99.90
59855;DHT22;45732;52.850;6.896;2023-07-29T00:22:37;19.50;99.90
59855;DHT22;45732;52.850;6.896;2023-07-29T00:25:03;19.50;99.90
59855;DHT22;45732;52.850;6.896;2023-07-29T00:27:29;19.50;99.90
59855;DHT22;45732;52.850;6.896;2023-07-29T00:29:55;19.40;99.90
59855;DHT22;45732;52.850;6.896;2023-07-29T00:32:20;19.40;99.90
59855;DHT22;45732;52.850;6.896;2023-07-29T00:34:46;19.30;99.90
59855;DHT22;45732;52.850;6.896;2023-07-29T00:37:12;19.40;99.90
59855;DHT22;45732;52.850;6.896;2023-07-29T00:39:38;19.40;99.90
59855;DHT22;45732;52.850;6.896;2023-07-29T00:42:04;19.30;99.90
59855;DHT22;45732;52.850;6.896;2023-07-29T00:44:30;19.30;99.90
59855;DHT22;45732;52.850;6.896;2023-07-29T00:46:57;19.30;99.90
59855;DHT22;45732;52.850;6.896;2023-07-29T00:49:24;19.20;99.90
59855;DHT22;45732;52.850;6.896;2023-07-29T00:51:50;19.20;99.90
59855;DHT22;45732;52.850;6.896;2023-07-29T00:54:16;19.20;99.90
59855;DHT22;45732;52.850;6.896;2023-07-29T00:56:42;19.20;99.90
59855;DHT22;45732;52.850;6.896;2023-07-29T00:59:08;19.20;99.90
59855;DHT22;45732;52.850;6.896;2023-07-29T01:01:34;19.20;99.90
59855;DHT22;45732;52.850;6.896;2023-07-29T01:04:00;19.20;99.90
59855;DHT22;45732;52.850;6.896;2023-07-29T01:14:41;19.10;99.90
59855;DHT22;45732;52.850;6.896;2023-07-29T01:17:11;19.00;99.90
59855;DHT22;45732;52.850;6.896;2023-07-29T01:22:23;19.00;99.90
59855;DHT22;45732;52.850;6.896;2023-07-29T01:24:49;18.90;99.90
59855;DHT22;45732;52.850;6.896;2023-07-29T01:27:15;19.00;99.90
59855;DHT22;45732;52.850;6.896;2023-07-29T01:29:41;19.00;99.90
59855;DHT22;45732;52.850;6.896;2023-07-29T01:32:11;18.90;99.90
59855;DHT22;45732;52.850;6.896;2023-07-29T01:34:45;18.90;99.90
59855;DHT22;45732;52.850;6.896;2023-07-29T01:37:18;18.90;99.90
59855;DHT22;45732;52.850;6.896;2023-07-29T01:39:48;18.90;99.90
59855;DHT22;45732;52.850;6.896;2023-07-29T01:42:15;18.80;99.90
59855;DHT22;45732;52.850;6.896;2023-07-29T01:44:41;18.80;99.90
59855;DHT22;45732;52.850;6.896;2023-07-29T01:47:08;18.70;99.90
59855;DHT22;45732;52.850;6.896;2023-07-29T01:49:34;18.70;99.90
59855;DHT22;45732;52.850;6.896;2023-07-29T01:51:59;18.70;99.90
59855;DHT22;45732;52.850;6.896;2023-07-29T01:54:25;18.70;99.90
59855;DHT22;45732;52.850;6.896;2023-07-29T01:56:51;18.70;99.90
59855;DHT22;45732;52.850;6.896;2023-07-29T01:59:17;18.70;99.90
59855;DHT22;45732;52.850;6.896;2023-07-29T02:01:43;18.70;99.90
59855;DHT22;45732;52.850;6.896;2023-07-29T02:04:08;18.70;99.90
59855;DHT22;45732;52.850;6.896;2023-07-29T02:06:34;18.60;99.90
59855;DHT22;45732;52.850;6.896;2023-07-29T02:09:00;18.70;99.90
59855;DHT22;45732;52.850;6.896;2023-07-29T02:11:26;18.70;99.90
59855;DHT22;45732;52.850;6.896;2023-07-29T02:13:56;18.60;99.90
59855;DHT22;45732;52.850;6.896;2023-07-29T02:16:22;18.60;99.90
59855;DHT22;45732;52.850;6.896;2023-07-29T02:18:48;18.60;99.90
59855;DHT22;45732;52.850;6.896;2023-07-29T02:21:15;18.60;99.90
59855;DHT22;45732;52.850;6.896;2023-07-29T02:23:41;18.60;99.90
59855;DHT22;45732;52.850;6.896;2023-07-29T02:26:07;18.50;99.90
59855;DHT22;45732;52.850;6.896;2023-07-29T02:28:32;18.40;99.90
59855;DHT22;45732;52.850;6.896;2023-07-29T02:31:17;18.50;99.90
59855;DHT22;45732;52.850;6.896;2023-07-29T02:33:44;18.40;99.90
59855;DHT22;45732;52.850;6.896;2023-07-29T02:36:11;18.50;99.90
59855;DHT22;45732;52.850;6.896;2023-07-29T02:38:37;18.40;99.90
59855;DHT22;45732;52.850;6.896;2023-07-29T02:41:03;18.40;99.90
59855;DHT22;45732;52.850;6.896;2023-07-29T02:43:29;18.50;99.90
59855;DHT22;45732;52.850;6.896;2023-07-29T02:45:54;18.40;99.90
59855;DHT22;45732;52.850;6.896;2023-07-29T02:48:20;18.40;99.90
59855;DHT22;45732;52.850;6.896;2023-07-29T02:50:46;18.40;99.90
59855;DHT22;45732;52.850;6.896;2023-07-29T02:53:11;18.40;99.90
59855;DHT22;45732;52.850;6.896;2023-07-29T02:55:40;18.40;99.90
59855;DHT22;45732;52.850;6.896;2023-07-29T02:58:06;18.40;99.90
59855;DHT22;45732;52.850;6.896;2023-07-29T03:00:33;18.40;99.90
59855;DHT22;45732;52.850;6.896;2023-07-29T03:02:59;18.40;99.90
59855;DHT22;45732;52.850;6.896;2023-07-29T03:05:27;18.30;99.90
59855;DHT22;45732;52.850;6.896;2023-07-29T03:07:53;18.30;99.90
59855;DHT22;45732;52.850;6.896;2023-07-29T03:10:18;18.20;99.90
59855;DHT22;45732;52.850;6.896;2023-07-29T03:12:44;18.20;99.90
59855;DHT22;45732;52.850;6.896;2023-07-29T03:15:10;18.20;99.90
59855;DHT22;45732;52.850;6.896;2023-07-29T03:17:36;18.10;99.90
59855;DHT22;45732;52.850;6.896;2023-07-29T03:20:01;18.10;99.90
59855;DHT22;45732;52.850;6.896;2023-07-29T03:22:27;18.20;99.90
59855;DHT22;45732;52.850;6.896;2023-07-29T03:24:53;18.10;99.90
59855;DHT22;45732;52.850;6.896;2023-07-29T03:27:18;18.10;99.90
59855;DHT22;45732;52.850;6.896;2023-07-29T03:29:44;18.10;99.90
59855;DHT22;45732;52.850;6.896;2023-07-29T03:32:10;18.10;99.90
59855;DHT22;45732;52.850;6.896;2023-07-29T03:34:36;18.10;99.90
59855;DHT22;45732;52.850;6.896;2023-07-29T03:37:02;18.00;99.90
59855;DHT22;45732;52.850;6.896;2023-07-29T03:39:28;18.00;99.90
59855;DHT22;45732;52.850;6.896;2023-07-29T03:41:53;18.00;99.90
59855;DHT22;45732;52.850;6.896;2023-07-29T03:44:19;18.00;99.90
59855;DHT22;45732;52.850;6.896;2023-07-29T03:46:45;18.00;99.90
59855;DHT22;45732;52.850;6.896;2023-07-29T03:49:11;17.90;99.90
59855;DHT22;45732;52.850;6.896;2023-07-29T03:51:36;17.90;99.90
59855;DHT22;45732;52.850;6.896;2023-07-29T03:54:02;17.90;99.90
59855;DHT22;45732;52.850;6.896;2023-07-29T03:56:28;17.90;99.90
59855;DHT22;45732;52.850;6.896;2023-07-29T03:59:02;17.90;99.90
59855;DHT22;45732;52.850;6.896;2023-07-29T04:01:29;17.90;99.90
59855;DHT22;45732;52.850;6.896;2023-07-29T04:03:54;17.80;99.90
59855;DHT22;45732;52.850;6.896;2023-07-29T04:06:20;17.80;99.90
59855;DHT22;45732;52.850;6.896;2023-07-29T04:08:46;17.80;99.90
59855;DHT22;45732;52.850;6.896;2023-07-29T04:11:12;17.80;99.90
59855;DHT22;45732;52.850;6.896;2023-07-29T04:13:38;17.80;99.90
59855;DHT22;45732;52.850;6.896;2023-07-29T04:16:04;17.70;99.90
59855;DHT22;45732;52.850;6.896;2023-07-29T04:18:30;17.70;99.90
59855;DHT22;45732;52.850;6.896;2023-07-29T04:20:56;17.70;99.90
59855;DHT22;45732;52.850;6.896;2023-07-29T04:23:22;17.70;99.90
59855;DHT22;45732;52.850;6.896;2023-07-29T04:25:47;17.70;99.90
59855;DHT22;45732;52.850;6.896;2023-07-29T04:28:13;17.70;99.90
59855;DHT22;45732;52.850;6.896;2023-07-29T04:30:39;17.70;99.90
59855;DHT22;45732;52.850;6.896;2023-07-29T04:33:05;17.70;99.90
59855;DHT22;45732;52.850;6.896;2023-07-29T04:35:30;17.70;99.90
59855;DHT22;45732;52.850;6.896;2023-07-29T04:37:56;17.70;99.90
59855;DHT22;45732;52.850;6.896;2023-07-29T04:40:21;17.70;99.90
59855;DHT22;45732;52.850;6.896;2023-07-29T04:42:48;17.70;99.90
59855;DHT22;45732;52.850;6.896;2023-07-29T04:45:14;17.70;99.90
59855;DHT22;45732;52.850;6.896;2023-07-29T04:47:41;17.80;99.90
59855;DHT22;45732;52.850;6.896;2023-07-29T04:50:07;17.80;99.90
59855;DHT22;45732;52.850;6.896;2023-07-29T04:52:33;17.70;99.90
59855;DHT22;45732;52.850;6.896;2023-07-29T04:54:59;17.70;99.90
59855;DHT22;45732;52.850;6.896;2023-07-29T04:57:24;17.70;99.90
59855;DHT22;45732;52.850;6.896;2023-07-29T04:59:50;17.70;99.90
59855;DHT22;45732;52.850;6.896;2023-07-29T05:02:16;17.70;99.90
59855;DHT22;45732;52.850;6.896;2023-07-29T05:04:41;17.70;99.90
59855;DHT22;45732;52.850;6.896;2023-07-29T05:07:08;17.70;99.90
59855;DHT22;45732;52.850;6.896;2023-07-29T05:09:34;17.70;99.90
59855;DHT22;45732;52.850;6.896;2023-07-29T05:12:00;17.70;99.90
59855;DHT22;45732;52.850;6.896;2023-07-29T05:14:26;17.70;99.90
59855;DHT22;45732;52.850;6.896;2023-07-29T05:16:52;17.80;99.90
59855;DHT22;45732;52.850;6.896;2023-07-29T05:19:17;17.80;99.90
59855;DHT22;45732;52.850;6.896;2023-07-29T05:21:43;17.70;99.90
59855;DHT22;45732;52.850;6.896;2023-07-29T05:24:09;17.70;99.90
59855;DHT22;45732;52.850;6.896;2023-07-29T05:26:35;17.70;99.90
59855;DHT22;45732;52.850;6.896;2023-07-29T05:29:00;17.70;99.90
59855;DHT22;45732;52.850;6.896;2023-07-29T05:31:26;17.80;99.90
59855;DHT22;45732;52.850;6.896;2023-07-29T05:33:53;17.80;99.90
59855;DHT22;45732;52.850;6.896;2023-07-29T05:36:19;17.80;99.90
59855;DHT22;45732;52.850;6.896;2023-07-29T05:38:44;17.80;99.90
59855;DHT22;45732;52.850;6.896;2023-07-29T05:41:10;17.80;99.90
59855;DHT22;45732;52.850;6.896;2023-07-29T05:43:36;17.80;99.90
59855;DHT22;45732;52.850;6.896;2023-07-29T05:46:02;17.90;99.90
59855;DHT22;45732;52.850;6.896;2023-07-29T05:48:28;17.90;99.90
59855;DHT22;45732;52.850;6.896;2023-07-29T05:50:54;17.90;99.90
59855;DHT22;45732;52.850;6.896;2023-07-29T05:53:19;17.90;99.90
59855;DHT22;45732;52.850;6.896;2023-07-29T05:55:45;17.90;99.90
59855;DHT22;45732;52.850;6.896;2023-07-29T05:58:11;17.90;99.90
59855;DHT22;45732;52.850;6.896;2023-07-29T06:00:36;17.90;99.90
59855;DHT22;45732;52.850;6.896;2023-07-29T06:03:02;17.90;99.90
59855;DHT22;45732;52.850;6.896;2023-07-29T06:05:28;17.90;99.90
59855;DHT22;45732;52.850;6.896;2023-07-29T06:07:54;17.90;99.90
59855;DHT22;45732;52.850;6.896;2023-07-29T06:10:19;17.90;99.90
59855;DHT22;45732;52.850;6.896;2023-07-29T06:12:46;17.90;99.90
59855;DHT22;45732;52.850;6.896;2023-07-29T06:15:11;18.00;99.90
59855;DHT22;45732;52.850;6.896;2023-07-29T06:17:38;18.00;99.90
59855;DHT22;45732;52.850;6.896;2023-07-29T06:20:04;18.00;99.90
59855;DHT22;45732;52.850;6.896;2023-07-29T06:22:31;18.00;99.90
59855;DHT22;45732;52.850;6.896;2023-07-29T06:24:57;18.00;99.90
59855;DHT22;45732;52.850;6.896;2023-07-29T06:27:23;18.00;99.90
59855;DHT22;45732;52.850;6.896;2023-07-29T06:29:50;18.00;99.90
59855;DHT22;45732;52.850;6.896;2023-07-29T06:32:16;18.00;99.90
59855;DHT22;45732;52.850;6.896;2023-07-29T06:34:42;18.00;99.90
59855;DHT22;45732;52.850;6.896;2023-07-29T06:37:07;18.10;99.90
59855;DHT22;45732;52.850;6.896;2023-07-29T06:39:34;18.10;99.90
59855;DHT22;45732;52.850;6.896;2023-07-29T06:41:59;18.20;99.90
59855;DHT22;45732;52.850;6.896;2023-07-29T06:44:25;18.20;99.90
59855;DHT22;45732;52.850;6.896;2023-07-29T06:46:51;18.30;99.90
59855;DHT22;45732;52.850;6.896;2023-07-29T06:49:17;18.30;99.90
59855;DHT22;45732;52.850;6.896;2023-07-29T06:51:42;18.30;99.90
59855;DHT22;45732;52.850;6.896;2023-07-29T06:54:08;18.30;99.90
59855;DHT22;45732;52.850;6.896;2023-07-29T06:56:34;18.30;99.90
59855;DHT22;45732;52.850;6.896;2023-07-29T06:59:00;18.40;99.90
59855;DHT22;45732;52.850;6.896;2023-07-29T07:01:25;18.40;99.90
59855;DHT22;45732;52.850;6.896;2023-07-29T07:03:51;18.60;99.90
59855;DHT22;45732;52.850;6.896;2023-07-29T07:06:21;18.60;99.90
59855;DHT22;45732;52.850;6.896;2023-07-29T07:08:47;18.60;99.90
59855;DHT22;45732;52.850;6.896;2023-07-29T07:11:13;18.60;99.90
59855;DHT22;45732;52.850;6.896;2023-07-29T07:13:39;18.60;99.90
59855;DHT22;45732;52.850;6.896;2023-07-29T07:16:04;18.70;99.90
59855;DHT22;45732;52.850;6.896;2023-07-29T07:18:30;18.70;99.90
59855;DHT22;45732;52.850;6.896;2023-07-29T07:20:56;18.80;99.90
59855;DHT22;45732;52.850;6.896;2023-07-29T07:23:22;18.80;99.90
59855;DHT22;45732;52.850;6.896;2023-07-29T07:25:47;18.80;99.90
59855;DHT22;45732;52.850;6.896;2023-07-29T07:28:13;18.80;99.90
59855;DHT22;45732;52.850;6.896;2023-07-29T07:30:42;18.80;99.90
59855;DHT22;45732;52.850;6.896;2023-07-29T07:33:08;18.80;99.90
59855;DHT22;45732;52.850;6.896;2023-07-29T07:35:33;18.80;99.90
59855;DHT22;45732;52.850;6.896;2023-07-29T07:37:59;18.90;99.90
59855;DHT22;45732;52.850;6.896;2023-07-29T07:40:27;18.90;99.90
59855;DHT22;45732;52.850;6.896;2023-07-29T07:42:53;18.90;99.90
59855;DHT22;45732;52.850;6.896;2023-07-29T07:45:19;19.00;99.90
59855;DHT22;45732;52.850;6.896;2023-07-29T07:47:45;19.10;99.90
59855;DHT22;45732;52.850;6.896;2023-07-29T07:50:11;19.10;99.90
59855;DHT22;45732;52.850;6.896;2023-07-29T07:52:37;19.20;99.90
59855;DHT22;45732;52.850;6.896;2023-07-29T07:55:03;19.20;99.90
59855;DHT22;45732;52.850;6.896;2023-07-29T07:57:29;19.30;99.90
59855;DHT22;45732;52.850;6.896;2023-07-29T07:59:54;19.30;99.90
59855;DHT22;45732;52.850;6.896;2023-07-29T08:02:20;19.40;99.90
59855;DHT22;45732;52.850;6.896;2023-07-29T08:04:46;19.50;99.90
59855;DHT22;45732;52.850;6.896;2023-07-29T08:07:11;19.50;99.90
59855;DHT22;45732;52.850;6.896;2023-07-29T08:09:39;19.50;99.90
59855;DHT22;45732;52.850;6.896;2023-07-29T08:12:04;19.60;99.90
59855;DHT22;45732;52.850;6.896;2023-07-29T08:14:30;19.60;99.90
59855;DHT22;45732;52.850;6.896;2023-07-29T08:16:56;19.70;99.90
59855;DHT22;45732;52.850;6.896;2023-07-29T08:19:22;19.90;99.90
59855;DHT22;45732;52.850;6.896;2023-07-29T08:21:48;19.90;99.90
59855;DHT22;45732;52.850;6.896;2023-07-29T08:24:13;20.00;99.90
59855;DHT22;45732;52.850;6.896;2023-07-29T08:26:39;20.00;99.90
59855;DHT22;45732;52.850;6.896;2023-07-29T08:29:05;20.00;99.90
59855;DHT22;45732;52.850;6.896;2023-07-29T08:31:30;20.00;99.90
59855;DHT22;45732;52.850;6.896;2023-07-29T08:33:59;19.90;99.90
59855;DHT22;45732;52.850;6.896;2023-07-29T08:36:25;19.80;99.90
59855;DHT22;45732;52.850;6.896;2023-07-29T08:38:51;19.80;99.90
59855;DHT22;45732;52.850;6.896;2023-07-29T08:41:21;19.80;99.90
59855;DHT22;45732;52.850;6.896;2023-07-29T08:46:20;19.80;99.90
59855;DHT22;45732;52.850;6.896;2023-07-29T08:48:46;19.90;99.90
59855;DHT22;45732;52.850;6.896;2023-07-29T08:51:12;20.10;99.90
59855;DHT22;45732;52.850;6.896;2023-07-29T08:53:39;20.20;99.90
59855;DHT22;45732;52.850;6.896;2023-07-29T08:56:06;20.30;99.90
59855;DHT22;45732;52.850;6.896;2023-07-29T08:58:32;20.30;99.90
59855;DHT22;45732;52.850;6.896;2023-07-29T09:00:58;20.30;99.90
59855;DHT22;45732;52.850;6.896;2023-07-29T09:03:24;20.30;99.90
59855;DHT22;45732;52.850;6.896;2023-07-29T09:05:50;20.30;99.90
59855;DHT22;45732;52.850;6.896;2023-07-29T09:08:16;20.30;99.90
59855;DHT22;45732;52.850;6.896;2023-07-29T09:10:42;20.30;99.90
59855;DHT22;45732;52.850;6.896;2023-07-29T09:13:08;20.40;99.90
59855;DHT22;45732;52.850;6.896;2023-07-29T09:15:35;20.40;99.90
59855;DHT22;45732;52.850;6.896;2023-07-29T09:18:15;20.40;99.90
59855;DHT22;45732;52.850;6.896;2023-07-29T09:20:42;20.50;99.90
59855;DHT22;45732;52.850;6.896;2023-07-29T09:23:09;20.50;99.90
59855;DHT22;45732;52.850;6.896;2023-07-29T09:25:38;20.50;99.90
59855;DHT22;45732;52.850;6.896;2023-07-29T09:28:09;20.70;99.90
59855;DHT22;45732;52.850;6.896;2023-07-29T09:30:37;20.70;99.90
59855;DHT22;45732;52.850;6.896;2023-07-29T09:33:03;20.60;99.90
59855;DHT22;45732;52.850;6.896;2023-07-29T09:35:32;20.50;99.90
59855;DHT22;45732;52.850;6.896;2023-07-29T09:37:58;20.60;99.90
59855;DHT22;45732;52.850;6.896;2023-07-29T09:40:23;20.60;99.90
59855;DHT22;45732;52.850;6.896;2023-07-29T09:42:54;20.80;99.90
59855;DHT22;45732;52.850;6.896;2023-07-29T09:45:26;21.10;99.90
59855;DHT22;45732;52.850;6.896;2023-07-29T09:47:53;21.20;99.90
59855;DHT22;45732;52.850;6.896;2023-07-29T09:50:23;21.30;99.90
59855;DHT22;45732;52.850;6.896;2023-07-29T09:52:50;21.30;99.90
59855;DHT22;45732;52.850;6.896;2023-07-29T09:55:20;21.20;99.90
59855;DHT22;45732;52.850;6.896;2023-07-29T09:57:46;21.10;99.90
59855;DHT22;45732;52.850;6.896;2023-07-29T10:00:13;21.00;99.90
59855;DHT22;45732;52.850;6.896;2023-07-29T10:02:40;21.20;99.90
59855;DHT22;45732;52.850;6.896;2023-07-29T10:05:07;21.30;99.90
59855;DHT22;45732;52.850;6.896;2023-07-29T10:07:36;21.40;99.90
59855;DHT22;45732;52.850;6.896;2023-07-29T10:10:04;21.40;99.90
59855;DHT22;45732;52.850;6.896;2023-07-29T10:12:34;21.50;99.90
59855;DHT22;45732;52.850;6.896;2023-07-29T10:15:05;21.60;99.90
59855;DHT22;45732;52.850;6.896;2023-07-29T10:17:35;21.70;99.90
59855;DHT22;45732;52.850;6.896;2023-07-29T10:20:04;21.60;99.90
59855;DHT22;45732;52.850;6.896;2023-07-29T10:22:34;21.60;99.90
59855;DHT22;45732;52.850;6.896;2023-07-29T10:25:24;21.60;99.90
59855;DHT22;45732;52.850;6.896;2023-07-29T10:28:05;21.60;99.90
59855;DHT22;45732;52.850;6.896;2023-07-29T10:30:31;21.60;99.90
59855;DHT22;45732;52.850;6.896;2023-07-29T10:33:02;21.60;99.90
59855;DHT22;45732;52.850;6.896;2023-07-29T10:35:29;21.70;99.90
59855;DHT22;45732;52.850;6.896;2023-07-29T10:37:55;21.60;99.90
59855;DHT22;45732;52.850;6.896;2023-07-29T10:40:22;21.70;99.90
59855;DHT22;45732;52.850;6.896;2023-07-29T10:43:26;21.70;99.90
59855;DHT22;45732;52.850;6.896;2023-07-29T10:45:53;21.90;99.90
59855;DHT22;45732;52.850;6.896;2023-07-29T10:48:39;22.10;99.90
59855;DHT22;45732;52.850;6.896;2023-07-29T10:51:25;22.00;99.90
59855;DHT22;45732;52.850;6.896;2023-07-29T10:54:08;22.10;99.90
59855;DHT22;45732;52.850;6.896;2023-07-29T10:56:36;22.10;99.90
59855;DHT22;45732;52.850;6.896;2023-07-29T10:59:30;22.20;99.90
59855;DHT22;45732;52.850;6.896;2023-07-29T11:02:00;22.30;99.90
59855;DHT22;45732;52.850;6.896;2023-07-29T11:04:28;22.30;99.90
59855;DHT22;45732;52.850;6.896;2023-07-29T11:17:37;22.20;99.90
59855;DHT22;45732;52.850;6.896;2023-07-29T11:20:04;22.30;99.90
59855;DHT22;45732;52.850;6.896;2023-07-29T11:22:31;22.20;99.90
59855;DHT22;45732;52.850;6.896;2023-07-29T11:24:56;22.10;99.90
59855;DHT22;45732;52.850;6.896;2023-07-29T11:27:22;22.10;99.90
59855;DHT22;45732;52.850;6.896;2023-07-29T11:29:48;22.00;99.90
59855;DHT22;45732;52.850;6.896;2023-07-29T11:32:15;22.10;99.90
59855;DHT22;45732;52.850;6.896;2023-07-29T11:34:42;22.20;99.90
59855;DHT22;45732;52.850;6.896;2023-07-29T11:37:10;22.40;99.90
59855;DHT22;45732;52.850;6.896;2023-07-29T11:39:43;22.40;99.90
59855;DHT22;45732;52.850;6.896;2023-07-29T11:42:16;22.40;99.90
59855;DHT22;45732;52.850;6.896;2023-07-29T11:44:42;22.30;99.90
59855;DHT22;45732;52.850;6.896;2023-07-29T11:47:09;22.10;99.90
59855;DHT22;45732;52.850;6.896;2023-07-29T11:49:36;22.10;99.90
59855;DHT22;45732;52.850;6.896;2023-07-29T11:52:04;22.10;99.90
59855;DHT22;45732;52.850;6.896;2023-07-29T11:54:31;22.20;99.90
59855;DHT22;45732;52.850;6.896;2023-07-29T11:56:57;22.30;99.90
59855;DHT22;45732;52.850;6.896;2023-07-29T11:59:23;22.40;99.90
59855;DHT22;45732;52.850;6.896;2023-07-29T12:01:49;22.40;99.90
59855;DHT22;45732;52.850;6.896;2023-07-29T12:04:15;22.30;99.90
59855;DHT22;45732;52.850;6.896;2023-07-29T12:06:42;22.20;99.90
59855;DHT22;45732;52.850;6.896;2023-07-29T12:09:08;22.00;99.90
59855;DHT22;45732;52.850;6.896;2023-07-29T12:11:34;21.80;99.90
59855;DHT22;45732;52.850;6.896;2023-07-29T12:14:00;21.50;99.90
59855;DHT22;45732;52.850;6.896;2023-07-29T12:16:26;21.40;99.90
59855;DHT22;45732;52.850;6.896;2023-07-29T12:18:52;21.50;99.90
59855;DHT22;45732;52.850;6.896;2023-07-29T12:21:21;21.60;99.90
59855;DHT22;45732;52.850;6.896;2023-07-29T12:23:47;21.70;99.90
59855;DHT22;45732;52.850;6.896;2023-07-29T12:26:13;21.70;99.90
59855;DHT22;45732;52.850;6.896;2023-07-29T12:28:38;21.70;99.90
59855;DHT22;45732;52.850;6.896;2023-07-29T12:31:07;21.70;99.90
59855;DHT22;45732;52.850;6.896;2023-07-29T12:33:35;21.60;99.90
59855;DHT22;45732;52.850;6.896;2023-07-29T12:36:02;21.70;99.90
59855;DHT22;45732;52.850;6.896;2023-07-29T12:38:29;21.80;99.90
59855;DHT22;45732;52.850;6.896;2023-07-29T12:40:55;21.90;99.90
59855;DHT22;45732;52.850;6.896;2023-07-29T12:43:21;22.00;99.90
59855;DHT22;45732;52.850;6.896;2023-07-29T12:45:49;22.00;99.90
59855;DHT22;45732;52.850;6.896;2023-07-29T12:48:15;22.00;99.90
59855;DHT22;45732;52.850;6.896;2023-07-29T12:50:41;22.10;99.90
59855;DHT22;45732;52.850;6.896;2023-07-29T12:53:08;22.10;99.90
59855;DHT22;45732;52.850;6.896;2023-07-29T12:55:35;22.20;99.90
59855;DHT22;45732;52.850;6.896;2023-07-29T12:58:01;22.20;99.90
59855;DHT22;45732;52.850;6.896;2023-07-29T13:00:27;22.30;99.90
59855;DHT22;45732;52.850;6.896;2023-07-29T13:02:54;22.40;99.90
59855;DHT22;45732;52.850;6.896;2023-07-29T13:05:19;22.50;99.90
59855;DHT22;45732;52.850;6.896;2023-07-29T13:07:45;22.50;99.90
59855;DHT22;45732;52.850;6.896;2023-07-29T13:10:12;22.40;99.90
59855;DHT22;45732;52.850;6.896;2023-07-29T13:12:38;22.40;99.90
59855;DHT22;45732;52.850;6.896;2023-07-29T13:15:05;22.40;99.90
59855;DHT22;45732;52.850;6.896;2023-07-29T13:17:31;22.20;99.90
59855;DHT22;45732;52.850;6.896;2023-07-29T13:19:56;22.20;99.90
59855;DHT22;45732;52.850;6.896;2023-07-29T13:22:22;22.20;99.90
59855;DHT22;45732;52.850;6.896;2023-07-29T13:24:48;22.20;99.90
59855;DHT22;45732;52.850;6.896;2023-07-29T13:27:14;22.20;99.90
59855;DHT22;45732;52.850;6.896;2023-07-29T13:29:40;22.20;99.90
59855;DHT22;45732;52.850;6.896;2023-07-29T13:32:06;22.20;99.90
59855;DHT22;45732;52.850;6.896;2023-07-29T13:34:32;22.10;99.90
59855;DHT22;45732;52.850;6.896;2023-07-29T13:36:59;21.90;99.90
59855;DHT22;45732;52.850;6.896;2023-07-29T13:39:25;21.70;99.90
59855;DHT22;45732;52.850;6.896;2023-07-29T13:41:51;21.40;99.90
59855;DHT22;45732;52.850;6.896;2023-07-29T13:44:17;21.20;99.90
59855;DHT22;45732;52.850;6.896;2023-07-29T13:46:42;21.00;99.90
59855;DHT22;45732;52.850;6.896;2023-07-29T13:49:08;20.90;99.90
59855;DHT22;45732;52.850;6.896;2023-07-29T13:51:34;20.80;99.90
59855;DHT22;45732;52.850;6.896;2023-07-29T13:53:59;20.80;99.90
59855;DHT22;45732;52.850;6.896;2023-07-29T13:56:25;20.70;99.90
59855;DHT22;45732;52.850;6.896;2023-07-29T13:58:51;20.70;99.90
59855;DHT22;45732;52.850;6.896;2023-07-29T14:01:17;20.70;99.90
59855;DHT22;45732;52.850;6.896;2023-07-29T14:03:43;20.60;99.90
59855;DHT22;45732;52.850;6.896;2023-07-29T14:06:09;20.50;99.90
59855;DHT22;45732;52.850;6.896;2023-07-29T14:08:34;20.30;99.90
59855;DHT22;45732;52.850;6.896;2023-07-29T14:11:01;19.80;99.90
59855;DHT22;45732;52.850;6.896;2023-07-29T14:13:26;19.40;99.90
59855;DHT22;45732;52.850;6.896;2023-07-29T14:15:52;19.30;99.90
59855;DHT22;45732;52.850;6.896;2023-07-29T14:18:18;19.10;99.90
59855;DHT22;45732;52.850;6.896;2023-07-29T14:20:44;19.10;99.90
59855;DHT22;45732;52.850;6.896;2023-07-29T14:23:10;19.20;99.90
59855;DHT22;45732;52.850;6.896;2023-07-29T14:25:35;19.10;99.90
59855;DHT22;45732;52.850;6.896;2023-07-29T14:28:01;19.10;99.90
59855;DHT22;45732;52.850;6.896;2023-07-29T14:30:27;19.10;99.90
59855;DHT22;45732;52.850;6.896;2023-07-29T14:32:53;19.10;99.90
59855;DHT22;45732;52.850;6.896;2023-07-29T14:35:18;19.10;99.90
59855;DHT22;45732;52.850;6.896;2023-07-29T14:37:44;19.10;99.90
59855;DHT22;45732;52.850;6.896;2023-07-29T14:40:10;19.00;99.90
59855;DHT22;45732;52.850;6.896;2023-07-29T14:42:35;19.10;99.90
59855;DHT22;45732;52.850;6.896;2023-07-29T14:45:01;19.20;99.90
59855;DHT22;45732;52.850;6.896;2023-07-29T14:47:27;19.30;99.90
59855;DHT22;45732;52.850;6.896;2023-07-29T14:49:53;19.40;99.90
59855;DHT22;45732;52.850;6.896;2023-07-29T14:52:18;19.50;99.90
59855;DHT22;45732;52.850;6.896;2023-07-29T14:54:44;19.50;99.90
59855;DHT22;45732;52.850;6.896;2023-07-29T14:57:10;19.60;99.90
59855;DHT22;45732;52.850;6.896;2023-07-29T14:59:36;19.60;99.90
59855;DHT22;45732;52.850;6.896;2023-07-29T15:02:02;19.60;99.90
59855;DHT22;45732;52.850;6.896;2023-07-29T15:04:28;19.50;99.90
59855;DHT22;45732;52.850;6.896;2023-07-29T15:06:53;19.60;99.90
59855;DHT22;45732;52.850;6.896;2023-07-29T15:09:19;19.50;99.90
59855;DHT22;45732;52.850;6.896;2023-07-29T15:11:45;19.40;99.90
59855;DHT22;45732;52.850;6.896;2023-07-29T15:14:10;19.30;99.90
59855;DHT22;45732;52.850;6.896;2023-07-29T15:16:36;19.30;99.90
59855;DHT22;45732;52.850;6.896;2023-07-29T15:19:04;19.30;99.90
59855;DHT22;45732;52.850;6.896;2023-07-29T15:21:30;19.30;99.90
59855;DHT22;45732;52.850;6.896;2023-07-29T15:23:56;19.40;99.90
59855;DHT22;45732;52.850;6.896;2023-07-29T15:26:21;19.50;99.90
59855;DHT22;45732;52.850;6.896;2023-07-29T15:28:47;19.60;99.90
59855;DHT22;45732;52.850;6.896;2023-07-29T15:31:13;19.70;99.90
59855;DHT22;45732;52.850;6.896;2023-07-29T15:33:39;19.70;99.90
59855;DHT22;45732;52.850;6.896;2023-07-29T15:36:04;19.80;99.90
59855;DHT22;45732;52.850;6.896;2023-07-29T15:38:30;19.90;99.90
59855;DHT22;45732;52.850;6.896;2023-07-29T15:40:56;19.90;99.90
59855;DHT22;45732;52.850;6.896;2023-07-29T15:43:23;20.10;99.90
59855;DHT22;45732;52.850;6.896;2023-07-29T15:45:49;20.10;99.90
59855;DHT22;45732;52.850;6.896;2023-07-29T15:48:15;20.20;99.90
59855;DHT22;45732;52.850;6.896;2023-07-29T15:50:41;20.20;99.90